sensor_id;sensor_type;location;lat;lon;timestamp;pressure;altitude;pressure_sealevel;temperature;humidity
22181;BME280;11256;50.830;12.834;2023-03-16T00:02:07;98099.53;;;1.85;68.28
22181;BME280;11256;50.830;12.834;2023-03-16T00:07:09;98084.41;;;1.72;68.37
22181;BME280;11256;50.830;12.834;2023-03-16T00:12:13;98089.59;;;1.61;68.14
22181;BME280;11256;50.830;12.834;2023-03-16T00:17:16;98106.06;;;1.58;68.42
22181;BME280;11256;50.830;12.834;2023-03-16T00:22:30;98089.69;;;1.48;68.56
22181;BME280;11256;50.830;12.834;2023-03-16T00:27:30;98097.44;;;1.56;68.46
22181;BME280;11256;50.830;12.834;2023-03-16T00:32:33;98102.38;;;1.59;67.97
22181;BME280;11256;50.830;12.834;2023-03-16T00:37:33;98102.59;;;1.51;68.15
22181;BME280;11256;50.830;12.834;2023-03-16T00:42:34;98108.19;;;1.43;67.92
22181;BME280;11256;50.830;12.834;2023-03-16T00:47:34;98092.22;;;1.30;68.20
22181;BME280;11256;50.830;12.834;2023-03-16T00:52:35;98118.50;;;1.33;68.08
22181;BME280;11256;50.830;12.834;2023-03-16T00:57:35;98115.63;;;1.28;68.12
22181;BME280;11256;50.830;12.834;2023-03-16T01:02:36;98118.91;;;1.30;68.44
22181;BME280;11256;50.830;12.834;2023-03-16T01:07:36;98117.28;;;1.29;68.45
22181;BME280;11256;50.830;12.834;2023-03-16T01:12:36;98127.34;;;1.27;67.93
22181;BME280;11256;50.830;12.834;2023-03-16T01:17:37;98120.38;;;1.26;68.11
22181;BME280;11256;50.830;12.834;2023-03-16T01:22:37;98125.09;;;1.24;68.08
22181;BME280;11256;50.830;12.834;2023-03-16T01:27:37;98116.91;;;1.19;68.27
22181;BME280;11256;50.830;12.834;2023-03-16T01:32:38;98113.22;;;1.20;68.23
22181;BME280;11256;50.830;12.834;2023-03-16T01:37:39;98087.63;;;0.99;68.12
22181;BME280;11256;50.830;12.834;2023-03-16T01:43:01;98133.13;;;1.17;68.13
22181;BME280;11256;50.830;12.834;2023-03-16T01:48:06;98123.28;;;1.11;68.24
22181;BME280;11256;50.830;12.834;2023-03-16T01:53:08;98123.06;;;1.13;68.07
22181;BME280;11256;50.830;12.834;2023-03-16T01:58:10;98105.88;;;0.96;68.21
22181;BME280;11256;50.830;12.834;2023-03-16T02:03:14;98117.78;;;1.00;68.14
22181;BME280;11256;50.830;12.834;2023-03-16T02:08:20;98106.94;;;0.95;68.11
22181;BME280;11256;50.830;12.834;2023-03-16T02:13:23;98094.03;;;0.79;68.47
22181;BME280;11256;50.830;12.834;2023-03-16T02:18:25;98100.59;;;0.83;68.14
22181;BME280;11256;50.830;12.834;2023-03-16T02:23:26;98101.00;;;0.80;68.56
22181;BME280;11256;50.830;12.834;2023-03-16T02:28:33;98104.72;;;0.79;68.43
22181;BME280;11256;50.830;12.834;2023-03-16T02:33:37;98103.91;;;0.72;68.53
22181;BME280;11256;50.830;12.834;2023-03-16T02:38:40;98105.53;;;0.66;68.43
22181;BME280;11256;50.830;12.834;2023-03-16T02:43:46;98101.03;;;0.67;68.67
22181;BME280;11256;50.830;12.834;2023-03-16T02:49:16;98113.56;;;0.60;68.32
22181;BME280;11256;50.830;12.834;2023-03-16T02:54:19;98098.59;;;0.46;68.81
22181;BME280;11256;50.830;12.834;2023-03-16T02:59:19;98114.16;;;0.49;68.65
22181;BME280;11256;50.830;12.834;2023-03-16T03:04:20;98091.63;;;0.32;68.71
22181;BME280;11256;50.830;12.834;2023-03-16T03:09:22;98102.72;;;0.42;68.88
22181;BME280;11256;50.830;12.834;2023-03-16T03:14:26;98115.63;;;0.32;68.66
22181;BME280;11256;50.830;12.834;2023-03-16T03:19:27;98107.41;;;0.27;69.49
22181;BME280;11256;50.830;12.834;2023-03-16T03:24:28;98123.22;;;0.28;69.62
22181;BME280;11256;50.830;12.834;2023-03-16T03:29:28;98121.97;;;0.24;69.82
22181;BME280;11256;50.830;12.834;2023-03-16T03:34:33;98112.97;;;0.19;70.17
22181;BME280;11256;50.830;12.834;2023-03-16T03:39:34;98124.44;;;0.13;69.73
22181;BME280;11256;50.830;12.834;2023-03-16T03:44:34;98108.47;;;0.00;70.06
22181;BME280;11256;50.830;12.834;2023-03-16T03:49:35;98126.91;;;0.08;70.55
22181;BME280;11256;50.830;12.834;2023-03-16T03:54:35;98131.78;;;-0.02;70.14
22181;BME280;11256;50.830;12.834;2023-03-16T03:59:40;98095.72;;;-0.24;70.59
22181;BME280;11256;50.830;12.834;2023-03-16T04:05:01;98135.06;;;-0.13;70.23
22181;BME280;11256;50.830;12.834;2023-03-16T04:10:05;98122.13;;;-0.29;70.19
22181;BME280;11256;50.830;12.834;2023-03-16T04:15:12;98114.94;;;-0.35;70.11
22181;BME280;11256;50.830;12.834;2023-03-16T04:20:30;98108.78;;;-0.36;70.37
22181;BME280;11256;50.830;12.834;2023-03-16T04:25:31;98127.44;;;-0.29;70.46
22181;BME280;11256;50.830;12.834;2023-03-16T04:30:32;98123.53;;;-0.33;70.44
22181;BME280;11256;50.830;12.834;2023-03-16T04:35:47;98124.34;;;-0.39;70.47
22181;BME280;11256;50.830;12.834;2023-03-16T04:40:49;98126.78;;;-0.44;70.57
22181;BME280;11256;50.830;12.834;2023-03-16T04:45:53;98117.34;;;-0.53;69.92
22181;BME280;11256;50.830;12.834;2023-03-16T04:50:54;98114.47;;;-0.58;70.36
22181;BME280;11256;50.830;12.834;2023-03-16T04:55:55;98116.50;;;-0.60;70.34
22181;BME280;11256;50.830;12.834;2023-03-16T05:00:55;98101.75;;;-0.69;70.63
22181;BME280;11256;50.830;12.834;2023-03-16T05:06:00;98122.19;;;-0.69;70.60
22181;BME280;11256;50.830;12.834;2023-03-16T05:11:02;98122.59;;;-0.72;70.63
22181;BME280;11256;50.830;12.834;2023-03-16T05:16:07;98113.38;;;-0.76;70.65
22181;BME280;11256;50.830;12.834;2023-03-16T05:21:11;98110.25;;;-0.86;70.40
22181;BME280;11256;50.830;12.834;2023-03-16T05:26:23;98114.78;;;-0.87;70.79
22181;BME280;11256;50.830;12.834;2023-03-16T05:31:25;98122.13;;;-0.89;70.61
22181;BME280;11256;50.830;12.834;2023-03-16T05:36:30;98122.72;;;-0.93;70.66
22181;BME280;11256;50.830;12.834;2023-03-16T05:41:39;98122.28;;;-0.97;70.71
22181;BME280;11256;50.830;12.834;2023-03-16T05:46:50;98131.28;;;-0.98;70.77
22181;BME280;11256;50.830;12.834;2023-03-16T05:51:50;98137.66;;;-0.92;71.28
22181;BME280;11256;50.830;12.834;2023-03-16T05:56:51;98138.47;;;-0.92;71.41
22181;BME280;11256;50.830;12.834;2023-03-16T06:01:51;98109.38;;;-1.00;71.96
22181;BME280;11256;50.830;12.834;2023-03-16T06:06:54;98139.00;;;-0.69;71.49
22181;BME280;11256;50.830;12.834;2023-03-16T06:11:58;98140.91;;;-0.43;71.74
22181;BME280;11256;50.830;12.834;2023-03-16T06:16:59;98140.00;;;-0.10;71.94
22181;BME280;11256;50.830;12.834;2023-03-16T06:21:59;98140.84;;;0.36;72.70
22181;BME280;11256;50.830;12.834;2023-03-16T06:27:02;98148.31;;;1.17;75.98
22181;BME280;11256;50.830;12.834;2023-03-16T06:32:08;98148.13;;;2.31;76.75
22181;BME280;11256;50.830;12.834;2023-03-16T06:37:09;98152.22;;;3.61;75.47
22181;BME280;11256;50.830;12.834;2023-03-16T06:42:10;98130.97;;;4.71;72.45
22181;BME280;11256;50.830;12.834;2023-03-16T06:47:12;98147.16;;;6.07;70.83
22181;BME280;11256;50.830;12.834;2023-03-16T06:52:13;98164.22;;;7.45;69.13
22181;BME280;11256;50.830;12.834;2023-03-16T06:57:13;98153.22;;;8.64;66.80
22181;BME280;11256;50.830;12.834;2023-03-16T07:02:14;98168.63;;;9.73;64.82
22181;BME280;11256;50.830;12.834;2023-03-16T07:07:16;98158.41;;;10.66;62.04
22181;BME280;11256;50.830;12.834;2023-03-16T07:12:18;98177.66;;;11.25;60.52
22181;BME280;11256;50.830;12.834;2023-03-16T07:17:18;98168.69;;;11.69;59.03
22181;BME280;11256;50.830;12.834;2023-03-16T07:22:19;98167.56;;;12.44;56.86
22181;BME280;11256;50.830;12.834;2023-03-16T07:27:19;98164.38;;;13.14;55.45
22181;BME280;11256;50.830;12.834;2023-03-16T07:32:20;98170.06;;;13.98;53.64
22181;BME280;11256;50.830;12.834;2023-03-16T07:37:21;98184.66;;;14.91;52.92
22181;BME280;11256;50.830;12.834;2023-03-16T07:42:22;98172.41;;;15.57;51.13
22181;BME280;11256;50.830;12.834;2023-03-16T07:47:48;98153.34;;;16.11;49.83
22181;BME280;11256;50.830;12.834;2023-03-16T07:53:24;98159.59;;;16.88;48.76
22181;BME280;11256;50.830;12.834;2023-03-16T07:58:35;98153.78;;;17.47;47.58
22181;BME280;11256;50.830;12.834;2023-03-16T08:03:36;98156.81;;;17.98;45.39
22181;BME280;11256;50.830;12.834;2023-03-16T08:08:37;98158.00;;;18.53;44.36
22181;BME280;11256;50.830;12.834;2023-03-16T08:13:37;98172.03;;;19.87;44.63
22181;BME280;11256;50.830;12.834;2023-03-16T08:18:38;98157.09;;;19.97;43.63
22181;BME280;11256;50.830;12.834;2023-03-16T08:23:40;98156.25;;;20.13;41.63
22181;BME280;11256;50.830;12.834;2023-03-16T08:28:42;98155.72;;;21.27;42.59
22181;BME280;11256;50.830;12.834;2023-03-16T08:33:46;98167.34;;;22.10;39.00
22181;BME280;11256;50.830;12.834;2023-03-16T08:38:51;98156.13;;;22.51;38.04
22181;BME280;11256;50.830;12.834;2023-03-16T08:43:51;98163.47;;;22.35;33.43
22181;BME280;11256;50.830;12.834;2023-03-16T08:48:52;98161.75;;;22.66;35.88
22181;BME280;11256;50.830;12.834;2023-03-16T08:53:56;98169.00;;;22.71;35.35
22181;BME280;11256;50.830;12.834;2023-03-16T08:58:57;98178.66;;;22.29;35.17
22181;BME280;11256;50.830;12.834;2023-03-16T09:03:59;98194.06;;;22.06;35.07
22181;BME280;11256;50.830;12.834;2023-03-16T09:09:00;98198.00;;;22.29;34.71
22181;BME280;11256;50.830;12.834;2023-03-16T09:14:00;98189.47;;;22.82;33.52
22181;BME280;11256;50.830;12.834;2023-03-16T09:19:00;98189.53;;;23.33;33.76
22181;BME280;11256;50.830;12.834;2023-03-16T09:24:01;98177.00;;;21.39;34.73
22181;BME280;11256;50.830;12.834;2023-03-16T09:29:02;98171.06;;;22.74;34.04
22181;BME280;11256;50.830;12.834;2023-03-16T09:34:03;98182.94;;;21.82;34.96
22181;BME280;11256;50.830;12.834;2023-03-16T09:39:03;98176.31;;;23.15;32.81
22181;BME280;11256;50.830;12.834;2023-03-16T09:49:26;98176.16;;;23.63;31.57
22181;BME280;11256;50.830;12.834;2023-03-16T09:54:36;98188.09;;;22.40;31.84
22181;BME280;11256;50.830;12.834;2023-03-16T09:59:41;98180.66;;;22.52;32.37
22181;BME280;11256;50.830;12.834;2023-03-16T10:05:07;98187.78;;;21.85;32.66
22181;BME280;11256;50.830;12.834;2023-03-16T10:15:12;98176.09;;;20.65;34.97
22181;BME280;11256;50.830;12.834;2023-03-16T10:20:20;98173.84;;;19.75;34.38
22181;BME280;11256;50.830;12.834;2023-03-16T10:25:38;98174.69;;;19.16;35.12
22181;BME280;11256;50.830;12.834;2023-03-16T10:30:41;98184.13;;;18.42;36.27
22181;BME280;11256;50.830;12.834;2023-03-16T10:35:46;98183.00;;;17.73;37.74
22181;BME280;11256;50.830;12.834;2023-03-16T10:40:51;98178.09;;;17.40;39.73
22181;BME280;11256;50.830;12.834;2023-03-16T10:45:57;98161.97;;;16.81;37.45
22181;BME280;11256;50.830;12.834;2023-03-16T10:51:04;98171.34;;;16.26;36.75
22181;BME280;11256;50.830;12.834;2023-03-16T10:56:11;98167.59;;;16.22;37.76
22181;BME280;11256;50.830;12.834;2023-03-16T11:01:24;98158.88;;;15.93;43.10
22181;BME280;11256;50.830;12.834;2023-03-16T11:06:30;98142.09;;;15.86;38.32
22181;BME280;11256;50.830;12.834;2023-03-16T11:11:32;98146.44;;;16.00;43.80
22181;BME280;11256;50.830;12.834;2023-03-16T11:16:45;98135.59;;;15.82;41.20
22181;BME280;11256;50.830;12.834;2023-03-16T11:26:56;98123.75;;;16.00;45.59
22181;BME280;11256;50.830;12.834;2023-03-16T11:32:05;98106.03;;;15.70;44.37
22181;BME280;11256;50.830;12.834;2023-03-16T11:37:19;98110.78;;;16.19;45.58
22181;BME280;11256;50.830;12.834;2023-03-16T11:42:37;98107.69;;;16.83;43.87
22181;BME280;11256;50.830;12.834;2023-03-16T11:47:56;98102.59;;;17.34;42.96
22181;BME280;11256;50.830;12.834;2023-03-16T11:53:16;98099.94;;;17.42;43.43
22181;BME280;11256;50.830;12.834;2023-03-16T11:58:36;98077.19;;;17.42;42.41
22181;BME280;11256;50.830;12.834;2023-03-16T12:09:20;98060.47;;;17.52;43.35
22181;BME280;11256;50.830;12.834;2023-03-16T12:14:40;98071.25;;;18.43;40.02
22181;BME280;11256;50.830;12.834;2023-03-16T12:19:50;98061.75;;;17.46;43.01
22181;BME280;11256;50.830;12.834;2023-03-16T12:24:52;98064.28;;;16.90;42.46
22181;BME280;11256;50.830;12.834;2023-03-16T12:35:39;98061.34;;;18.17;42.13
22181;BME280;11256;50.830;12.834;2023-03-16T12:40:54;98058.81;;;16.19;34.43
22181;BME280;11256;50.830;12.834;2023-03-16T12:46:16;98053.09;;;15.80;41.69
22181;BME280;11256;50.830;12.834;2023-03-16T12:51:42;98036.22;;;17.15;40.38
22181;BME280;11256;50.830;12.834;2023-03-16T12:56:44;98034.38;;;15.87;41.44
22181;BME280;11256;50.830;12.834;2023-03-16T13:01:56;98025.06;;;17.03;42.46
22181;BME280;11256;50.830;12.834;2023-03-16T13:07:03;98015.81;;;17.99;41.32
22181;BME280;11256;50.830;12.834;2023-03-16T13:12:07;98015.88;;;18.33;40.00
22181;BME280;11256;50.830;12.834;2023-03-16T13:27:26;98003.75;;;18.34;41.88
22181;BME280;11256;50.830;12.834;2023-03-16T13:32:32;98000.59;;;17.76;40.63
22181;BME280;11256;50.830;12.834;2023-03-16T13:37:32;97968.47;;;16.68;35.11
22181;BME280;11256;50.830;12.834;2023-03-16T13:42:33;97990.66;;;18.14;40.59
22181;BME280;11256;50.830;12.834;2023-03-16T13:47:33;97981.78;;;18.17;41.34
22181;BME280;11256;50.830;12.834;2023-03-16T13:52:34;97980.03;;;18.55;38.72
22181;BME280;11256;50.830;12.834;2023-03-16T13:57:36;97976.47;;;18.63;41.08
22181;BME280;11256;50.830;12.834;2023-03-16T14:02:41;97959.97;;;17.00;38.18
22181;BME280;11256;50.830;12.834;2023-03-16T14:07:45;97975.91;;;16.32;37.08
22181;BME280;11256;50.830;12.834;2023-03-16T14:18:18;97972.66;;;17.26;36.59
22181;BME280;11256;50.830;12.834;2023-03-16T14:23:32;97982.03;;;17.34;43.73
22181;BME280;11256;50.830;12.834;2023-03-16T14:28:34;97967.72;;;17.84;41.46
22181;BME280;11256;50.830;12.834;2023-03-16T14:33:37;97983.41;;;17.45;42.46
22181;BME280;11256;50.830;12.834;2023-03-16T14:38:40;97956.66;;;16.59;43.04
22181;BME280;11256;50.830;12.834;2023-03-16T14:43:47;97957.16;;;17.22;41.38
22181;BME280;11256;50.830;12.834;2023-03-16T14:48:48;97955.38;;;16.87;39.80
22181;BME280;11256;50.830;12.834;2023-03-16T14:53:49;97932.50;;;16.17;36.43
22181;BME280;11256;50.830;12.834;2023-03-16T14:58:49;97940.25;;;16.89;42.75
22181;BME280;11256;50.830;12.834;2023-03-16T15:03:50;97925.31;;;15.09;36.80
22181;BME280;11256;50.830;12.834;2023-03-16T15:08:51;97937.16;;;15.59;42.62
22181;BME280;11256;50.830;12.834;2023-03-16T15:13:53;97882.66;;;15.76;38.82
22181;BME280;11256;50.830;12.834;2023-03-16T15:19:03;97906.28;;;15.18;42.14
22181;BME280;11256;50.830;12.834;2023-03-16T15:24:03;97892.84;;;15.08;45.31
22181;BME280;11256;50.830;12.834;2023-03-16T15:29:05;97884.34;;;15.50;41.21
22181;BME280;11256;50.830;12.834;2023-03-16T15:34:05;97909.63;;;15.91;41.65
22181;BME280;11256;50.830;12.834;2023-03-16T15:39:10;97906.81;;;15.06;38.97
22181;BME280;11256;50.830;12.834;2023-03-16T15:44:16;97903.47;;;14.37;37.98
22181;BME280;11256;50.830;12.834;2023-03-16T15:49:16;97879.84;;;13.82;40.00
22181;BME280;11256;50.830;12.834;2023-03-16T15:54:16;97888.41;;;13.75;40.52
22181;BME280;11256;50.830;12.834;2023-03-16T15:59:17;97895.97;;;13.60;39.62
22181;BME280;11256;50.830;12.834;2023-03-16T16:04:20;97877.72;;;13.42;39.05
22181;BME280;11256;50.830;12.834;2023-03-16T16:09:21;97880.78;;;12.70;39.49
22181;BME280;11256;50.830;12.834;2023-03-16T16:14:23;97908.03;;;12.36;37.55
22181;BME280;11256;50.830;12.834;2023-03-16T16:19:24;97883.75;;;12.16;39.84
22181;BME280;11256;50.830;12.834;2023-03-16T16:24:24;97887.84;;;12.14;42.73
22181;BME280;11256;50.830;12.834;2023-03-16T16:29:29;97872.56;;;11.61;41.20
22181;BME280;11256;50.830;12.834;2023-03-16T16:34:31;97883.06;;;11.67;44.53
22181;BME280;11256;50.830;12.834;2023-03-16T16:39:31;97884.94;;;11.28;43.19
22181;BME280;11256;50.830;12.834;2023-03-16T16:44:31;97881.44;;;11.23;41.25
22181;BME280;11256;50.830;12.834;2023-03-16T16:49:32;97867.94;;;11.13;42.71
22181;BME280;11256;50.830;12.834;2023-03-16T16:54:33;97871.72;;;11.17;45.11
22181;BME280;11256;50.830;12.834;2023-03-16T16:59:36;97866.88;;;11.04;43.08
22181;BME280;11256;50.830;12.834;2023-03-16T17:04:36;97892.13;;;11.04;44.07
22181;BME280;11256;50.830;12.834;2023-03-16T17:09:37;97865.91;;;10.85;45.86
22181;BME280;11256;50.830;12.834;2023-03-16T17:14:38;97877.47;;;11.00;47.16
22181;BME280;11256;50.830;12.834;2023-03-16T17:19:38;97874.47;;;11.07;48.12
22181;BME280;11256;50.830;12.834;2023-03-16T17:24:39;97877.03;;;10.73;45.61
22181;BME280;11256;50.830;12.834;2023-03-16T17:29:39;97860.53;;;10.65;47.49
22181;BME280;11256;50.830;12.834;2023-03-16T17:34:41;97863.28;;;10.60;46.95
22181;BME280;11256;50.830;12.834;2023-03-16T17:39:42;97875.28;;;10.24;45.46
22181;BME280;11256;50.830;12.834;2023-03-16T17:44:48;97876.91;;;10.30;47.92
22181;BME280;11256;50.830;12.834;2023-03-16T17:49:50;97876.91;;;10.20;48.67
22181;BME280;11256;50.830;12.834;2023-03-16T17:54:51;97869.88;;;10.19;48.68
22181;BME280;11256;50.830;12.834;2023-03-16T17:59:52;97865.53;;;10.18;48.78
22181;BME280;11256;50.830;12.834;2023-03-16T18:04:53;97859.59;;;10.21;49.88
22181;BME280;11256;50.830;12.834;2023-03-16T18:09:53;97852.03;;;10.08;47.76
22181;BME280;11256;50.830;12.834;2023-03-16T18:14:54;97841.44;;;9.91;48.32
22181;BME280;11256;50.830;12.834;2023-03-16T18:19:58;97823.34;;;9.77;48.24
22181;BME280;11256;50.830;12.834;2023-03-16T18:24:58;97802.50;;;9.67;50.19
22181;BME280;11256;50.830;12.834;2023-03-16T18:30:01;97837.94;;;9.76;49.89
22181;BME280;11256;50.830;12.834;2023-03-16T18:35:01;97853.91;;;9.82;50.61
22181;BME280;11256;50.830;12.834;2023-03-16T18:40:01;97833.06;;;9.73;51.00
22181;BME280;11256;50.830;12.834;2023-03-16T18:45:03;97829.28;;;9.59;50.77
22181;BME280;11256;50.830;12.834;2023-03-16T18:50:03;97838.22;;;9.69;50.95
22181;BME280;11256;50.830;12.834;2023-03-16T18:55:13;97834.16;;;9.67;51.29
22181;BME280;11256;50.830;12.834;2023-03-16T19:00:17;97847.41;;;9.68;51.14
22181;BME280;11256;50.830;12.834;2023-03-16T19:05:24;97842.53;;;9.65;51.42
22181;BME280;11256;50.830;12.834;2023-03-16T19:10:29;97838.47;;;9.63;51.68
22181;BME280;11256;50.830;12.834;2023-03-16T19:15:31;97821.16;;;9.49;51.66
22181;BME280;11256;50.830;12.834;2023-03-16T19:20:33;97830.91;;;9.45;51.54
22181;BME280;11256;50.830;12.834;2023-03-16T19:25:36;97827.09;;;9.36;51.57
22181;BME280;11256;50.830;12.834;2023-03-16T19:30:37;97792.47;;;9.18;51.85
22181;BME280;11256;50.830;12.834;2023-03-16T19:35:38;97795.69;;;9.15;51.87
22181;BME280;11256;50.830;12.834;2023-03-16T19:40:38;97820.03;;;9.15;51.85
22181;BME280;11256;50.830;12.834;2023-03-16T19:45:39;97812.19;;;9.08;52.27
22181;BME280;11256;50.830;12.834;2023-03-16T19:50:40;97830.84;;;9.05;52.14
22181;BME280;11256;50.830;12.834;2023-03-16T19:55:40;97834.03;;;8.87;51.86
22181;BME280;11256;50.830;12.834;2023-03-16T20:00:41;97825.88;;;8.72;52.31
22181;BME280;11256;50.830;12.834;2023-03-16T20:05:41;97827.75;;;8.66;50.30
22181;BME280;11256;50.830;12.834;2023-03-16T20:10:42;97839.06;;;8.58;51.76
22181;BME280;11256;50.830;12.834;2023-03-16T20:15:43;97839.00;;;8.43;52.04
22181;BME280;11256;50.830;12.834;2023-03-16T20:20:44;97831.53;;;8.19;50.13
22181;BME280;11256;50.830;12.834;2023-03-16T20:25:45;97810.34;;;7.91;49.35
22181;BME280;11256;50.830;12.834;2023-03-16T20:30:46;97814.50;;;7.72;49.89
22181;BME280;11256;50.830;12.834;2023-03-16T20:35:48;97800.84;;;7.47;48.12
22181;BME280;11256;50.830;12.834;2023-03-16T20:40:51;97811.69;;;7.57;51.44
22181;BME280;11256;50.830;12.834;2023-03-16T20:45:54;97798.66;;;7.44;50.14
22181;BME280;11256;50.830;12.834;2023-03-16T20:50:56;97788.13;;;7.42;51.81
22181;BME280;11256;50.830;12.834;2023-03-16T20:55:58;97761.66;;;7.03;49.66
22181;BME280;11256;50.830;12.834;2023-03-16T21:00:59;97789.78;;;7.17;50.45
22181;BME280;11256;50.830;12.834;2023-03-16T21:06:01;97768.97;;;7.07;51.27
22181;BME280;11256;50.830;12.834;2023-03-16T21:11:01;97776.91;;;7.19;51.88
22181;BME280;11256;50.830;12.834;2023-03-16T21:16:02;97771.63;;;7.02;50.07
22181;BME280;11256;50.830;12.834;2023-03-16T21:21:03;97770.19;;;6.95;50.60
22181;BME280;11256;50.830;12.834;2023-03-16T21:26:04;97752.31;;;6.84;50.76
22181;BME280;11256;50.830;12.834;2023-03-16T21:31:04;97752.16;;;6.69;48.50
22181;BME280;11256;50.830;12.834;2023-03-16T21:36:12;97742.41;;;6.63;49.96
22181;BME280;11256;50.830;12.834;2023-03-16T21:41:14;97739.00;;;6.46;48.75
22181;BME280;11256;50.830;12.834;2023-03-16T21:46:16;97736.13;;;6.52;51.67
22181;BME280;11256;50.830;12.834;2023-03-16T21:51:20;97756.41;;;6.60;51.46
22181;BME280;11256;50.830;12.834;2023-03-16T21:56:22;97723.97;;;6.50;50.32
22181;BME280;11256;50.830;12.834;2023-03-16T22:01:27;97725.50;;;6.41;50.32
22181;BME280;11256;50.830;12.834;2023-03-16T22:06:28;97716.34;;;6.42;50.28
22181;BME280;11256;50.830;12.834;2023-03-16T22:11:29;97699.41;;;6.20;48.76
22181;BME280;11256;50.830;12.834;2023-03-16T22:16:30;97691.41;;;6.25;51.94
22181;BME280;11256;50.830;12.834;2023-03-16T22:21:40;97691.75;;;6.33;51.63
22181;BME280;11256;50.830;12.834;2023-03-16T22:26:41;97691.22;;;6.31;52.69
22181;BME280;11256;50.830;12.834;2023-03-16T22:31:42;97696.06;;;6.29;52.12
22181;BME280;11256;50.830;12.834;2023-03-16T22:36:42;97679.97;;;6.13;51.19
22181;BME280;11256;50.830;12.834;2023-03-16T22:41:42;97689.13;;;6.12;50.34
22181;BME280;11256;50.830;12.834;2023-03-16T22:46:43;97653.63;;;5.88;51.53
22181;BME280;11256;50.830;12.834;2023-03-16T22:51:43;97648.78;;;5.90;49.80
22181;BME280;11256;50.830;12.834;2023-03-16T22:56:44;97677.13;;;5.98;50.61
22181;BME280;11256;50.830;12.834;2023-03-16T23:01:48;97679.75;;;5.93;50.09
22181;BME280;11256;50.830;12.834;2023-03-16T23:06:52;97663.34;;;5.73;48.52
22181;BME280;11256;50.830;12.834;2023-03-16T23:11:53;97676.84;;;5.78;48.95
22181;BME280;11256;50.830;12.834;2023-03-16T23:16:54;97653.53;;;5.62;48.52
22181;BME280;11256;50.830;12.834;2023-03-16T23:21:59;97676.16;;;5.66;48.79
22181;BME280;11256;50.830;12.834;2023-03-16T23:27:00;97654.03;;;5.59;49.07
22181;BME280;11256;50.830;12.834;2023-03-16T23:32:00;97649.41;;;5.54;48.95
22181;BME280;11256;50.830;12.834;2023-03-16T23:37:03;97643.41;;;5.47;48.49
22181;BME280;11256;50.830;12.834;2023-03-16T23:42:03;97633.31;;;5.38;48.49
22181;BME280;11256;50.830;12.834;2023-03-16T23:47:04;97620.34;;;5.30;47.84
22181;BME280;11256;50.830;12.834;2023-03-16T23:52:04;97633.84;;;5.35;47.93
22181;BME280;11256;50.830;12.834;2023-03-16T23:57:05;97615.97;;;5.24;48.80
